sensor_id;sensor_type;location;lat;lon;timestamp;temperature;humidity
18658;DHT22;9458;50.942;5.074;2023-06-05T00:00:40;16.90;99.90
18658;DHT22;9458;50.942;5.074;2023-06-05T00:03:12;16.80;99.90
18658;DHT22;9458;50.942;5.074;2023-06-05T00:05:58;16.80;99.90
18658;DHT22;9458;50.942;5.074;2023-06-05T00:08:40;16.70;99.90
18658;DHT22;9458;50.942;5.074;2023-06-05T00:11:17;16.70;99.90
18658;DHT22;9458;50.942;5.074;2023-06-05T00:13:50;16.60;99.90
18658;DHT22;9458;50.942;5.074;2023-06-05T00:16:21;16.60;99.90
18658;DHT22;9458;50.942;5.074;2023-06-05T00:18:49;16.60;99.90
18658;DHT22;9458;50.942;5.074;2023-06-05T00:21:16;16.60;99.90
18658;DHT22;9458;50.942;5.074;2023-06-05T00:23:49;16.50;99.90
18658;DHT22;9458;50.942;5.074;2023-06-05T00:26:17;16.40;99.90
18658;DHT22;9458;50.942;5.074;2023-06-05T00:28:45;16.40;99.90
18658;DHT22;9458;50.942;5.074;2023-06-05T00:31:22;16.40;99.90
18658;DHT22;9458;50.942;5.074;2023-06-05T00:33:50;16.40;99.90
18658;DHT22;9458;50.942;5.074;2023-06-05T00:36:18;16.30;99.90
18658;DHT22;9458;50.942;5.074;2023-06-05T00:38:51;16.30;99.90
18658;DHT22;9458;50.942;5.074;2023-06-05T00:41:20;16.30;99.90
18658;DHT22;9458;50.942;5.074;2023-06-05T00:43:58;16.20;99.90
18658;DHT22;9458;50.942;5.074;2023-06-05T00:46:31;16.20;99.90
18658;DHT22;9458;50.942;5.074;2023-06-05T00:49:00;16.10;99.90
18658;DHT22;9458;50.942;5.074;2023-06-05T00:51:28;15.90;99.90
18658;DHT22;9458;50.942;5.074;2023-06-05T00:53:57;16.00;99.90
18658;DHT22;9458;50.942;5.074;2023-06-05T00:56:24;16.00;99.90
18658;DHT22;9458;50.942;5.074;2023-06-05T00:58:52;16.00;99.90
18658;DHT22;9458;50.942;5.074;2023-06-05T01:01:20;16.00;99.90
18658;DHT22;9458;50.942;5.074;2023-06-05T01:03:50;15.90;99.90
18658;DHT22;9458;50.942;5.074;2023-06-05T01:06:19;15.80;99.90
18658;DHT22;9458;50.942;5.074;2023-06-05T01:08:48;15.80;99.90
18658;DHT22;9458;50.942;5.074;2023-06-05T01:11:19;15.80;99.90
18658;DHT22;9458;50.942;5.074;2023-06-05T01:13:50;15.80;99.90
18658;DHT22;9458;50.942;5.074;2023-06-05T01:16:21;15.70;99.90
18658;DHT22;9458;50.942;5.074;2023-06-05T01:18:57;15.60;99.90
18658;DHT22;9458;50.942;5.074;2023-06-05T01:21:28;15.70;99.90
18658;DHT22;9458;50.942;5.074;2023-06-05T01:23:59;15.60;99.90
18658;DHT22;9458;50.942;5.074;2023-06-05T01:26:28;15.60;99.90
18658;DHT22;9458;50.942;5.074;2023-06-05T01:28:58;15.50;99.90
18658;DHT22;9458;50.942;5.074;2023-06-05T01:31:33;15.50;99.90
18658;DHT22;9458;50.942;5.074;2023-06-05T01:34:11;15.50;99.90
18658;DHT22;9458;50.942;5.074;2023-06-05T01:36:52;15.40;99.90
18658;DHT22;9458;50.942;5.074;2023-06-05T01:39:33;15.30;99.90
18658;DHT22;9458;50.942;5.074;2023-06-05T01:42:01;15.30;99.90
18658;DHT22;9458;50.942;5.074;2023-06-05T01:44:29;15.30;99.90
18658;DHT22;9458;50.942;5.074;2023-06-05T01:46:58;15.40;99.90
18658;DHT22;9458;50.942;5.074;2023-06-05T01:49:26;15.30;99.90
18658;DHT22;9458;50.942;5.074;2023-06-05T01:51:53;15.20;99.90
18658;DHT22;9458;50.942;5.074;2023-06-05T01:54:22;15.10;99.90
18658;DHT22;9458;50.942;5.074;2023-06-05T01:56:53;15.10;99.90
18658;DHT22;9458;50.942;5.074;2023-06-05T01:59:22;15.10;99.90
18658;DHT22;9458;50.942;5.074;2023-06-05T02:01:51;15.00;99.90
18658;DHT22;9458;50.942;5.074;2023-06-05T02:04:28;15.00;99.90
18658;DHT22;9458;50.942;5.074;2023-06-05T02:07:05;15.00;99.90
18658;DHT22;9458;50.942;5.074;2023-06-05T02:09:35;15.00;99.90
18658;DHT22;9458;50.942;5.074;2023-06-05T02:12:04;15.00;99.90
18658;DHT22;9458;50.942;5.074;2023-06-05T02:14:34;15.00;99.90
18658;DHT22;9458;50.942;5.074;2023-06-05T02:17:02;14.90;99.90
18658;DHT22;9458;50.942;5.074;2023-06-05T02:19:32;14.90;99.90
18658;DHT22;9458;50.942;5.074;2023-06-05T02:21:59;14.90;99.90
18658;DHT22;9458;50.942;5.074;2023-06-05T02:24:27;14.90;99.90
18658;DHT22;9458;50.942;5.074;2023-06-05T02:26:54;14.90;99.90
18658;DHT22;9458;50.942;5.074;2023-06-05T02:29:24;14.80;99.90
18658;DHT22;9458;50.942;5.074;2023-06-05T02:31:52;14.80;99.90
18658;DHT22;9458;50.942;5.074;2023-06-05T02:34:19;14.80;99.90
18658;DHT22;9458;50.942;5.074;2023-06-05T02:36:46;14.70;99.90
18658;DHT22;9458;50.942;5.074;2023-06-05T02:39:13;14.70;99.90
18658;DHT22;9458;50.942;5.074;2023-06-05T02:41:41;14.60;99.90
18658;DHT22;9458;50.942;5.074;2023-06-05T02:44:09;14.50;99.90
18658;DHT22;9458;50.942;5.074;2023-06-05T02:46:38;14.50;99.90
18658;DHT22;9458;50.942;5.074;2023-06-05T02:49:06;14.50;99.90
18658;DHT22;9458;50.942;5.074;2023-06-05T02:51:34;14.50;99.90
18658;DHT22;9458;50.942;5.074;2023-06-05T02:54:02;14.50;99.90
18658;DHT22;9458;50.942;5.074;2023-06-05T02:56:29;14.40;99.90
18658;DHT22;9458;50.942;5.074;2023-06-05T02:58:58;14.40;99.90
18658;DHT22;9458;50.942;5.074;2023-06-05T03:01:29;14.30;99.90
18658;DHT22;9458;50.942;5.074;2023-06-05T03:04:07;14.30;99.90
18658;DHT22;9458;50.942;5.074;2023-06-05T03:06:36;14.30;99.90
18658;DHT22;9458;50.942;5.074;2023-06-05T03:09:04;14.30;99.90
18658;DHT22;9458;50.942;5.074;2023-06-05T03:11:32;14.30;99.90
18658;DHT22;9458;50.942;5.074;2023-06-05T03:13:59;14.30;99.90
18658;DHT22;9458;50.942;5.074;2023-06-05T03:16:26;14.30;99.90
18658;DHT22;9458;50.942;5.074;2023-06-05T03:19:04;14.30;99.90
18658;DHT22;9458;50.942;5.074;2023-06-05T03:21:36;14.30;99.90
18658;DHT22;9458;50.942;5.074;2023-06-05T03:24:04;14.10;99.90
18658;DHT22;9458;50.942;5.074;2023-06-05T03:26:33;14.10;99.90
18658;DHT22;9458;50.942;5.074;2023-06-05T03:29:02;14.10;99.90
18658;DHT22;9458;50.942;5.074;2023-06-05T03:31:29;14.20;99.90
18658;DHT22;9458;50.942;5.074;2023-06-05T03:33:58;14.20;99.90
18658;DHT22;9458;50.942;5.074;2023-06-05T03:36:26;14.20;99.90
18658;DHT22;9458;50.942;5.074;2023-06-05T03:38:56;14.20;99.90
18658;DHT22;9458;50.942;5.074;2023-06-05T03:41:23;14.10;99.90
18658;DHT22;9458;50.942;5.074;2023-06-05T03:43:52;14.10;99.90
18658;DHT22;9458;50.942;5.074;2023-06-05T03:46:19;14.10;99.90
18658;DHT22;9458;50.942;5.074;2023-06-05T03:48:48;14.00;99.90
18658;DHT22;9458;50.942;5.074;2023-06-05T03:51:18;14.10;99.90
18658;DHT22;9458;50.942;5.074;2023-06-05T03:53:45;14.10;99.90
18658;DHT22;9458;50.942;5.074;2023-06-05T03:56:22;14.40;99.90
18658;DHT22;9458;50.942;5.074;2023-06-05T03:58:49;14.70;99.90
18658;DHT22;9458;50.942;5.074;2023-06-05T04:01:17;14.90;99.90
18658;DHT22;9458;50.942;5.074;2023-06-05T04:03:44;15.10;99.90
18658;DHT22;9458;50.942;5.074;2023-06-05T04:06:14;15.50;99.90
18658;DHT22;9458;50.942;5.074;2023-06-05T04:08:40;15.70;99.90
18658;DHT22;9458;50.942;5.074;2023-06-05T04:11:08;15.90;99.90
18658;DHT22;9458;50.942;5.074;2023-06-05T04:13:37;16.00;99.90
18658;DHT22;9458;50.942;5.074;2023-06-05T04:16:07;16.10;99.90
18658;DHT22;9458;50.942;5.074;2023-06-05T04:18:34;16.40;99.90
18658;DHT22;9458;50.942;5.074;2023-06-05T04:21:01;16.60;99.90
18658;DHT22;9458;50.942;5.074;2023-06-05T04:23:28;16.90;99.90
18658;DHT22;9458;50.942;5.074;2023-06-05T04:25:56;17.20;99.90
18658;DHT22;9458;50.942;5.074;2023-06-05T04:28:23;17.30;99.90
18658;DHT22;9458;50.942;5.074;2023-06-05T04:30:54;17.70;99.90
18658;DHT22;9458;50.942;5.074;2023-06-05T04:33:21;18.10;99.90
18658;DHT22;9458;50.942;5.074;2023-06-05T04:35:48;18.20;99.90
18658;DHT22;9458;50.942;5.074;2023-06-05T04:38:15;18.10;99.90
18658;DHT22;9458;50.942;5.074;2023-06-05T04:40:46;18.30;99.90
18658;DHT22;9458;50.942;5.074;2023-06-05T04:43:13;18.50;99.90
18658;DHT22;9458;50.942;5.074;2023-06-05T04:45:41;18.60;99.90
18658;DHT22;9458;50.942;5.074;2023-06-05T04:48:09;18.80;99.90
18658;DHT22;9458;50.942;5.074;2023-06-05T04:50:36;19.00;99.90
18658;DHT22;9458;50.942;5.074;2023-06-05T04:53:04;19.30;99.90
18658;DHT22;9458;50.942;5.074;2023-06-05T04:55:31;19.50;99.90
18658;DHT22;9458;50.942;5.074;2023-06-05T04:57:58;19.40;99.90
18658;DHT22;9458;50.942;5.074;2023-06-05T05:00:26;19.80;99.90
18658;DHT22;9458;50.942;5.074;2023-06-05T05:02:54;20.10;99.90
18658;DHT22;9458;50.942;5.074;2023-06-05T05:05:24;20.50;99.90
18658;DHT22;9458;50.942;5.074;2023-06-05T05:07:51;20.80;99.90
18658;DHT22;9458;50.942;5.074;2023-06-05T05:10:18;21.20;99.90
18658;DHT22;9458;50.942;5.074;2023-06-05T05:12:46;21.20;99.90
18658;DHT22;9458;50.942;5.074;2023-06-05T05:15:13;21.40;99.90
18658;DHT22;9458;50.942;5.074;2023-06-05T05:17:40;21.50;99.90
18658;DHT22;9458;50.942;5.074;2023-06-05T05:20:07;21.60;99.90
18658;DHT22;9458;50.942;5.074;2023-06-05T05:22:35;21.40;99.90
18658;DHT22;9458;50.942;5.074;2023-06-05T05:25:03;21.60;99.90
18658;DHT22;9458;50.942;5.074;2023-06-05T05:27:30;21.60;99.90
18658;DHT22;9458;50.942;5.074;2023-06-05T05:29:58;21.90;99.90
18658;DHT22;9458;50.942;5.074;2023-06-05T05:32:25;22.20;99.90
18658;DHT22;9458;50.942;5.074;2023-06-05T05:34:52;22.10;99.90
18658;DHT22;9458;50.942;5.074;2023-06-05T05:37:19;22.60;99.90
18658;DHT22;9458;50.942;5.074;2023-06-05T05:39:49;23.10;99.90
18658;DHT22;9458;50.942;5.074;2023-06-05T05:42:16;23.40;99.30
18658;DHT22;9458;50.942;5.074;2023-06-05T05:44:43;23.40;99.30
18658;DHT22;9458;50.942;5.074;2023-06-05T05:47:10;23.80;98.80
18658;DHT22;9458;50.942;5.074;2023-06-05T05:49:37;23.80;98.20
18658;DHT22;9458;50.942;5.074;2023-06-05T05:52:04;23.50;98.50
18658;DHT22;9458;50.942;5.074;2023-06-05T05:54:32;23.80;98.20
18658;DHT22;9458;50.942;5.074;2023-06-05T05:57:01;23.90;98.00
18658;DHT22;9458;50.942;5.074;2023-06-05T05:59:30;24.50;97.70
18658;DHT22;9458;50.942;5.074;2023-06-05T06:01:57;24.10;97.40
18658;DHT22;9458;50.942;5.074;2023-06-05T06:04:32;24.20;97.30
18658;DHT22;9458;50.942;5.074;2023-06-05T06:07:06;24.80;96.50
18658;DHT22;9458;50.942;5.074;2023-06-05T06:09:33;25.30;95.80
18658;DHT22;9458;50.942;5.074;2023-06-05T06:12:02;25.60;95.60
18658;DHT22;9458;50.942;5.074;2023-06-05T06:14:32;24.90;95.30
18658;DHT22;9458;50.942;5.074;2023-06-05T06:16:59;25.50;95.10
18658;DHT22;9458;50.942;5.074;2023-06-05T06:19:26;25.90;94.40
18658;DHT22;9458;50.942;5.074;2023-06-05T06:21:54;26.40;93.90
18658;DHT22;9458;50.942;5.074;2023-06-05T06:24:22;26.80;93.10
18658;DHT22;9458;50.942;5.074;2023-06-05T06:26:50;26.40;93.90
18658;DHT22;9458;50.942;5.074;2023-06-05T06:29:19;27.10;92.20
18658;DHT22;9458;50.942;5.074;2023-06-05T06:31:49;27.60;91.70
18658;DHT22;9458;50.942;5.074;2023-06-05T06:34:16;27.40;91.10
18658;DHT22;9458;50.942;5.074;2023-06-05T06:36:44;27.50;91.80
18658;DHT22;9458;50.942;5.074;2023-06-05T06:39:12;28.00;90.70
18658;DHT22;9458;50.942;5.074;2023-06-05T06:41:40;28.40;90.70
18658;DHT22;9458;50.942;5.074;2023-06-05T06:44:07;28.70;90.00
18658;DHT22;9458;50.942;5.074;2023-06-05T06:46:35;28.10;89.60
18658;DHT22;9458;50.942;5.074;2023-06-05T06:49:03;28.50;88.40
18658;DHT22;9458;50.942;5.074;2023-06-05T06:51:32;28.70;87.70
18658;DHT22;9458;50.942;5.074;2023-06-05T06:53:59;27.80;87.70
18658;DHT22;9458;50.942;5.074;2023-06-05T06:56:26;28.20;87.40
18658;DHT22;9458;50.942;5.074;2023-06-05T06:58:54;28.60;87.60
18658;DHT22;9458;50.942;5.074;2023-06-05T07:01:22;29.40;86.20
18658;DHT22;9458;50.942;5.074;2023-06-05T07:03:52;29.40;85.50
18658;DHT22;9458;50.942;5.074;2023-06-05T07:06:19;29.10;86.60
18658;DHT22;9458;50.942;5.074;2023-06-05T07:08:48;28.80;87.60
18658;DHT22;9458;50.942;5.074;2023-06-05T07:11:16;29.20;89.30
18658;DHT22;9458;50.942;5.074;2023-06-05T07:13:43;29.80;85.70
18658;DHT22;9458;50.942;5.074;2023-06-05T07:16:10;29.80;82.50
18658;DHT22;9458;50.942;5.074;2023-06-05T07:18:37;29.80;83.00
18658;DHT22;9458;50.942;5.074;2023-06-05T07:21:07;29.50;83.60
18658;DHT22;9458;50.942;5.074;2023-06-05T07:23:35;29.90;83.60
18658;DHT22;9458;50.942;5.074;2023-06-05T07:26:03;30.40;82.90
18658;DHT22;9458;50.942;5.074;2023-06-05T07:28:30;30.10;81.60
18658;DHT22;9458;50.942;5.074;2023-06-05T07:30:57;29.90;83.50
18658;DHT22;9458;50.942;5.074;2023-06-05T07:33:28;30.80;83.40
18658;DHT22;9458;50.942;5.074;2023-06-05T07:35:58;30.70;81.10
18658;DHT22;9458;50.942;5.074;2023-06-05T07:38:27;30.80;80.00
18658;DHT22;9458;50.942;5.074;2023-06-05T07:40:55;31.20;78.90
18658;DHT22;9458;50.942;5.074;2023-06-05T07:43:23;30.70;80.50
18658;DHT22;9458;50.942;5.074;2023-06-05T07:45:50;31.20;80.10
18658;DHT22;9458;50.942;5.074;2023-06-05T07:48:17;31.30;79.30
18658;DHT22;9458;50.942;5.074;2023-06-05T07:50:44;31.30;78.90
18658;DHT22;9458;50.942;5.074;2023-06-05T07:53:12;31.40;78.50
18658;DHT22;9458;50.942;5.074;2023-06-05T07:55:41;31.30;78.80
18658;DHT22;9458;50.942;5.074;2023-06-05T07:58:08;31.50;79.00
18658;DHT22;9458;50.942;5.074;2023-06-05T08:00:36;31.50;78.90
18658;DHT22;9458;50.942;5.074;2023-06-05T08:03:04;31.50;77.40
18658;DHT22;9458;50.942;5.074;2023-06-05T08:05:31;31.90;77.70
18658;DHT22;9458;50.942;5.074;2023-06-05T08:08:00;31.80;77.80
18658;DHT22;9458;50.942;5.074;2023-06-05T08:10:28;31.50;76.90
18658;DHT22;9458;50.942;5.074;2023-06-05T08:12:56;31.40;78.10
18658;DHT22;9458;50.942;5.074;2023-06-05T08:15:23;30.90;80.00
18658;DHT22;9458;50.942;5.074;2023-06-05T08:17:51;30.40;80.30
18658;DHT22;9458;50.942;5.074;2023-06-05T08:20:18;30.60;79.20
18658;DHT22;9458;50.942;5.074;2023-06-05T08:22:47;30.40;79.60
18658;DHT22;9458;50.942;5.074;2023-06-05T08:25:14;30.10;81.00
18658;DHT22;9458;50.942;5.074;2023-06-05T08:27:41;29.50;81.50
18658;DHT22;9458;50.942;5.074;2023-06-05T08:30:11;28.60;82.60
18658;DHT22;9458;50.942;5.074;2023-06-05T08:32:39;28.40;84.40
18658;DHT22;9458;50.942;5.074;2023-06-05T08:35:07;28.10;84.00
18658;DHT22;9458;50.942;5.074;2023-06-05T08:37:34;27.50;86.10
18658;DHT22;9458;50.942;5.074;2023-06-05T08:40:02;27.80;85.00
18658;DHT22;9458;50.942;5.074;2023-06-05T08:42:31;27.80;85.30
18658;DHT22;9458;50.942;5.074;2023-06-05T08:44:59;27.70;85.40
18658;DHT22;9458;50.942;5.074;2023-06-05T08:47:28;27.50;85.80
18658;DHT22;9458;50.942;5.074;2023-06-05T08:49:55;27.90;86.30
18658;DHT22;9458;50.942;5.074;2023-06-05T08:52:23;27.70;86.10
18658;DHT22;9458;50.942;5.074;2023-06-05T08:54:52;27.30;86.50
18658;DHT22;9458;50.942;5.074;2023-06-05T08:57:19;27.20;86.80
18658;DHT22;9458;50.942;5.074;2023-06-05T08:59:46;27.50;87.60
18658;DHT22;9458;50.942;5.074;2023-06-05T09:02:16;27.60;84.40
18658;DHT22;9458;50.942;5.074;2023-06-05T09:04:44;27.10;88.70
18658;DHT22;9458;50.942;5.074;2023-06-05T09:07:12;27.10;90.40
18658;DHT22;9458;50.942;5.074;2023-06-05T09:09:39;27.10;87.10
18658;DHT22;9458;50.942;5.074;2023-06-05T09:12:07;27.30;89.70
18658;DHT22;9458;50.942;5.074;2023-06-05T09:14:34;27.20;88.50
18658;DHT22;9458;50.942;5.074;2023-06-05T09:17:02;27.30;87.60
18658;DHT22;9458;50.942;5.074;2023-06-05T09:19:36;27.10;88.30
18658;DHT22;9458;50.942;5.074;2023-06-05T09:22:05;27.10;87.10
18658;DHT22;9458;50.942;5.074;2023-06-05T09:24:32;27.10;88.10
18658;DHT22;9458;50.942;5.074;2023-06-05T09:27:00;27.00;88.70
18658;DHT22;9458;50.942;5.074;2023-06-05T09:29:28;27.00;90.00
18658;DHT22;9458;50.942;5.074;2023-06-05T09:31:55;27.20;89.40
18658;DHT22;9458;50.942;5.074;2023-06-05T09:34:23;27.10;88.80
18658;DHT22;9458;50.942;5.074;2023-06-05T09:36:51;27.00;87.70
18658;DHT22;9458;50.942;5.074;2023-06-05T09:39:24;26.60;89.50
18658;DHT22;9458;50.942;5.074;2023-06-05T09:41:53;26.40;88.20
18658;DHT22;9458;50.942;5.074;2023-06-05T09:44:21;26.20;85.50
18658;DHT22;9458;50.942;5.074;2023-06-05T09:46:55;26.20;87.80
18658;DHT22;9458;50.942;5.074;2023-06-05T09:49:26;26.30;87.70
18658;DHT22;9458;50.942;5.074;2023-06-05T09:51:54;26.30;90.10
18658;DHT22;9458;50.942;5.074;2023-06-05T09:54:24;26.40;88.90
18658;DHT22;9458;50.942;5.074;2023-06-05T09:56:52;26.40;86.70
18658;DHT22;9458;50.942;5.074;2023-06-05T09:59:22;26.60;87.70
18658;DHT22;9458;50.942;5.074;2023-06-05T10:01:53;26.70;86.60
18658;DHT22;9458;50.942;5.074;2023-06-05T10:04:32;26.60;90.30
18658;DHT22;9458;50.942;5.074;2023-06-05T10:07:09;26.50;87.30
18658;DHT22;9458;50.942;5.074;2023-06-05T10:09:42;26.20;89.70
18658;DHT22;9458;50.942;5.074;2023-06-05T10:12:12;26.30;88.70
18658;DHT22;9458;50.942;5.074;2023-06-05T10:14:40;26.20;87.00
18658;DHT22;9458;50.942;5.074;2023-06-05T10:17:08;26.30;87.80
18658;DHT22;9458;50.942;5.074;2023-06-05T10:19:37;26.20;87.90
18658;DHT22;9458;50.942;5.074;2023-06-05T10:22:07;26.00;86.20
18658;DHT22;9458;50.942;5.074;2023-06-05T10:24:35;26.20;87.60
18658;DHT22;9458;50.942;5.074;2023-06-05T10:32:40;26.10;81.80
18658;DHT22;9458;50.942;5.074;2023-06-05T10:35:13;26.30;84.80
18658;DHT22;9458;50.942;5.074;2023-06-05T10:37:46;26.30;87.00
18658;DHT22;9458;50.942;5.074;2023-06-05T10:40:14;26.40;87.00
18658;DHT22;9458;50.942;5.074;2023-06-05T10:42:42;25.90;87.10
18658;DHT22;9458;50.942;5.074;2023-06-05T10:45:09;25.90;88.20
18658;DHT22;9458;50.942;5.074;2023-06-05T10:47:50;26.10;87.60
18658;DHT22;9458;50.942;5.074;2023-06-05T10:50:19;26.00;86.20
18658;DHT22;9458;50.942;5.074;2023-06-05T10:52:47;26.50;86.10
18658;DHT22;9458;50.942;5.074;2023-06-05T10:55:14;26.60;85.40
18658;DHT22;9458;50.942;5.074;2023-06-05T11:00:28;25.90;84.60
18658;DHT22;9458;50.942;5.074;2023-06-05T11:02:57;26.30;86.40
18658;DHT22;9458;50.942;5.074;2023-06-05T11:05:25;26.30;87.20
18658;DHT22;9458;50.942;5.074;2023-06-05T11:10:35;26.30;85.30
18658;DHT22;9458;50.942;5.074;2023-06-05T11:13:02;26.20;82.50
18658;DHT22;9458;50.942;5.074;2023-06-05T11:15:40;25.70;81.90
18658;DHT22;9458;50.942;5.074;2023-06-05T11:18:29;25.60;85.90
18658;DHT22;9458;50.942;5.074;2023-06-05T11:20:57;25.90;85.10
18658;DHT22;9458;50.942;5.074;2023-06-05T11:23:24;25.70;83.00
18658;DHT22;9458;50.942;5.074;2023-06-05T11:25:53;25.60;84.40
18658;DHT22;9458;50.942;5.074;2023-06-05T11:28:38;25.80;81.90
18658;DHT22;9458;50.942;5.074;2023-06-05T11:31:06;25.70;85.50
18658;DHT22;9458;50.942;5.074;2023-06-05T11:33:35;25.70;83.50
18658;DHT22;9458;50.942;5.074;2023-06-05T11:36:04;25.90;84.00
18658;DHT22;9458;50.942;5.074;2023-06-05T11:38:32;26.10;85.20
18658;DHT22;9458;50.942;5.074;2023-06-05T11:41:00;26.00;83.10
18658;DHT22;9458;50.942;5.074;2023-06-05T11:43:27;26.00;82.90
18658;DHT22;9458;50.942;5.074;2023-06-05T11:45:57;25.90;84.10
18658;DHT22;9458;50.942;5.074;2023-06-05T11:48:24;25.80;83.90
18658;DHT22;9458;50.942;5.074;2023-06-05T11:50:54;25.70;81.80
18658;DHT22;9458;50.942;5.074;2023-06-05T11:53:21;25.80;84.90
18658;DHT22;9458;50.942;5.074;2023-06-05T11:55:48;25.90;82.50
18658;DHT22;9458;50.942;5.074;2023-06-05T11:58:33;25.60;82.50
18658;DHT22;9458;50.942;5.074;2023-06-05T12:01:05;25.70;83.70
18658;DHT22;9458;50.942;5.074;2023-06-05T12:03:33;25.60;86.60
18658;DHT22;9458;50.942;5.074;2023-06-05T12:06:03;25.80;85.60
18658;DHT22;9458;50.942;5.074;2023-06-05T12:08:31;25.80;82.40
18658;DHT22;9458;50.942;5.074;2023-06-05T12:10:58;25.70;84.00
18658;DHT22;9458;50.942;5.074;2023-06-05T12:13:44;25.80;86.50
18658;DHT22;9458;50.942;5.074;2023-06-05T12:16:12;25.50;82.80
18658;DHT22;9458;50.942;5.074;2023-06-05T12:18:39;25.50;81.80
18658;DHT22;9458;50.942;5.074;2023-06-05T12:21:15;25.70;80.40
18658;DHT22;9458;50.942;5.074;2023-06-05T12:23:45;25.60;82.50
18658;DHT22;9458;50.942;5.074;2023-06-05T12:26:14;25.80;81.20
18658;DHT22;9458;50.942;5.074;2023-06-05T12:28:41;25.80;83.50
18658;DHT22;9458;50.942;5.074;2023-06-05T12:31:09;25.70;81.30
18658;DHT22;9458;50.942;5.074;2023-06-05T12:33:45;25.60;81.90
18658;DHT22;9458;50.942;5.074;2023-06-05T12:36:14;25.80;83.40
18658;DHT22;9458;50.942;5.074;2023-06-05T12:38:42;25.60;78.50
18658;DHT22;9458;50.942;5.074;2023-06-05T12:41:09;25.70;80.20
18658;DHT22;9458;50.942;5.074;2023-06-05T12:43:36;25.70;81.80
18658;DHT22;9458;50.942;5.074;2023-06-05T12:46:05;25.80;82.10
18658;DHT22;9458;50.942;5.074;2023-06-05T12:48:33;25.60;78.40
18658;DHT22;9458;50.942;5.074;2023-06-05T12:51:00;25.60;80.00
18658;DHT22;9458;50.942;5.074;2023-06-05T12:53:29;25.60;79.60
18658;DHT22;9458;50.942;5.074;2023-06-05T12:55:56;25.60;82.10
18658;DHT22;9458;50.942;5.074;2023-06-05T12:58:24;25.30;82.80
18658;DHT22;9458;50.942;5.074;2023-06-05T13:00:51;25.50;79.80
18658;DHT22;9458;50.942;5.074;2023-06-05T13:03:20;25.50;81.20
18658;DHT22;9458;50.942;5.074;2023-06-05T13:05:49;25.70;80.00
18658;DHT22;9458;50.942;5.074;2023-06-05T13:08:15;25.70;81.20
18658;DHT22;9458;50.942;5.074;2023-06-05T13:10:44;25.70;78.30
18658;DHT22;9458;50.942;5.074;2023-06-05T13:13:11;25.50;74.70
18658;DHT22;9458;50.942;5.074;2023-06-05T13:15:39;25.20;75.80
18658;DHT22;9458;50.942;5.074;2023-06-05T13:18:07;25.10;74.30
18658;DHT22;9458;50.942;5.074;2023-06-05T13:20:35;25.20;76.80
18658;DHT22;9458;50.942;5.074;2023-06-05T13:23:02;25.10;76.40
18658;DHT22;9458;50.942;5.074;2023-06-05T13:25:31;25.20;76.10
18658;DHT22;9458;50.942;5.074;2023-06-05T13:27:59;25.20;77.10
18658;DHT22;9458;50.942;5.074;2023-06-05T13:30:26;25.10;76.40
18658;DHT22;9458;50.942;5.074;2023-06-05T13:32:54;25.20;77.10
18658;DHT22;9458;50.942;5.074;2023-06-05T13:35:21;25.30;77.50
18658;DHT22;9458;50.942;5.074;2023-06-05T13:37:49;25.20;77.50
18658;DHT22;9458;50.942;5.074;2023-06-05T13:40:17;25.10;77.90
18658;DHT22;9458;50.942;5.074;2023-06-05T13:42:44;25.20;77.40
18658;DHT22;9458;50.942;5.074;2023-06-05T13:45:13;25.20;77.50
18658;DHT22;9458;50.942;5.074;2023-06-05T13:47:40;25.20;77.70
18658;DHT22;9458;50.942;5.074;2023-06-05T13:50:08;25.00;76.80
18658;DHT22;9458;50.942;5.074;2023-06-05T13:52:36;25.10;74.30
18658;DHT22;9458;50.942;5.074;2023-06-05T13:55:04;25.10;75.60
18658;DHT22;9458;50.942;5.074;2023-06-05T13:57:32;25.10;76.30
18658;DHT22;9458;50.942;5.074;2023-06-05T13:59:59;25.10;76.90
18658;DHT22;9458;50.942;5.074;2023-06-05T14:02:27;25.20;77.60
18658;DHT22;9458;50.942;5.074;2023-06-05T14:04:54;25.10;76.50
18658;DHT22;9458;50.942;5.074;2023-06-05T14:07:22;25.10;78.10
18658;DHT22;9458;50.942;5.074;2023-06-05T14:09:49;25.00;77.50
18658;DHT22;9458;50.942;5.074;2023-06-05T14:12:19;25.00;77.80
18658;DHT22;9458;50.942;5.074;2023-06-05T14:14:46;25.00;76.30
18658;DHT22;9458;50.942;5.074;2023-06-05T14:17:13;25.10;77.40
18658;DHT22;9458;50.942;5.074;2023-06-05T14:19:42;25.10;76.40
18658;DHT22;9458;50.942;5.074;2023-06-05T14:22:09;25.10;79.00
18658;DHT22;9458;50.942;5.074;2023-06-05T14:24:36;25.10;80.50
18658;DHT22;9458;50.942;5.074;2023-06-05T14:27:04;25.20;80.10
18658;DHT22;9458;50.942;5.074;2023-06-05T14:29:31;25.00;79.00
18658;DHT22;9458;50.942;5.074;2023-06-05T14:32:01;25.10;80.90
18658;DHT22;9458;50.942;5.074;2023-06-05T14:34:29;25.20;83.10
18658;DHT22;9458;50.942;5.074;2023-06-05T14:36:57;25.20;81.90
18658;DHT22;9458;50.942;5.074;2023-06-05T14:39:25;25.20;79.10
18658;DHT22;9458;50.942;5.074;2023-06-05T14:41:54;25.20;79.30
18658;DHT22;9458;50.942;5.074;2023-06-05T14:44:21;25.10;77.20
18658;DHT22;9458;50.942;5.074;2023-06-05T14:46:48;25.10;81.40
18658;DHT22;9458;50.942;5.074;2023-06-05T14:49:15;25.20;79.80
18658;DHT22;9458;50.942;5.074;2023-06-05T14:51:43;25.30;81.00
18658;DHT22;9458;50.942;5.074;2023-06-05T14:54:12;25.30;78.70
18658;DHT22;9458;50.942;5.074;2023-06-05T14:56:39;25.30;79.70
18658;DHT22;9458;50.942;5.074;2023-06-05T14:59:06;25.30;80.50
18658;DHT22;9458;50.942;5.074;2023-06-05T15:01:33;25.20;78.50
18658;DHT22;9458;50.942;5.074;2023-06-05T15:04:02;25.10;78.20
18658;DHT22;9458;50.942;5.074;2023-06-05T15:06:29;24.80;75.80
18658;DHT22;9458;50.942;5.074;2023-06-05T15:08:56;24.70;78.40
18658;DHT22;9458;50.942;5.074;2023-06-05T15:11:25;24.80;76.30
18658;DHT22;9458;50.942;5.074;2023-06-05T15:13:53;24.80;76.20
18658;DHT22;9458;50.942;5.074;2023-06-05T15:16:20;25.00;75.30
18658;DHT22;9458;50.942;5.074;2023-06-05T15:18:47;25.10;77.30
18658;DHT22;9458;50.942;5.074;2023-06-05T15:21:16;25.10;77.50
18658;DHT22;9458;50.942;5.074;2023-06-05T15:23:43;25.00;78.60
18658;DHT22;9458;50.942;5.074;2023-06-05T15:26:11;25.00;80.50
18658;DHT22;9458;50.942;5.074;2023-06-05T15:28:39;24.90;79.10
18658;DHT22;9458;50.942;5.074;2023-06-05T15:31:07;24.90;81.70
18658;DHT22;9458;50.942;5.074;2023-06-05T15:33:35;25.00;78.50
18658;DHT22;9458;50.942;5.074;2023-06-05T15:36:03;25.10;80.60
18658;DHT22;9458;50.942;5.074;2023-06-05T15:38:30;25.00;78.80
18658;DHT22;9458;50.942;5.074;2023-06-05T15:40:58;25.00;77.60
18658;DHT22;9458;50.942;5.074;2023-06-05T15:43:26;25.00;78.20
18658;DHT22;9458;50.942;5.074;2023-06-05T15:45:54;24.90;79.10
18658;DHT22;9458;50.942;5.074;2023-06-05T15:48:22;25.00;80.20
18658;DHT22;9458;50.942;5.074;2023-06-05T15:50:50;25.00;78.30
18658;DHT22;9458;50.942;5.074;2023-06-05T15:53:18;24.80;78.60
18658;DHT22;9458;50.942;5.074;2023-06-05T15:55:45;24.80;79.30
18658;DHT22;9458;50.942;5.074;2023-06-05T15:58:13;24.90;78.20
18658;DHT22;9458;50.942;5.074;2023-06-05T16:00:42;24.80;75.90
18658;DHT22;9458;50.942;5.074;2023-06-05T16:03:11;24.80;78.90
18658;DHT22;9458;50.942;5.074;2023-06-05T16:05:38;24.70;78.60